Time,TemperatureF,DewpointF,PressureIn,WindDirection,WindDirectionDegrees,WindSpeedMPH,WindSpeedGustMPH,Humidity,HourlyPrecipIn,Conditions,Clouds,dailyrainin,SoftwareType,DateUTC
2013-08-19 00:03:00,65.3,58.0,30.07,SW,225,1.0,2.0,76,0.00,,,0.00,weatherlink.com 1.10,2013-08-19 04:03:00,
2013-08-19 00:18:00,64.4,58.0,30.07,SW,224,2.0,2.0,79,0.00,,,0.00,weatherlink.com 1.10,2013-08-19 04:18:00,
2013-08-19 00:33:00,64.3,58.0,30.07,SW,233,2.0,3.0,79,0.00,,,0.00,weatherlink.com 1.10,2013-08-19 04:33:00,
2013-08-19 00:48:00,63.4,57.0,30.07,SW,228,0.0,1.0,80,0.00,,,0.00,weatherlink.com 1.10,2013-08-19 04:48:00,
2013-08-19 01:03:00,62.8,57.0,30.07,SW,236,0.0,1.0,82,0.00,,,0.00,weatherlink.com 1.10,2013-08-19 05:03:00,
2013-08-19 01:19:00,62.4,57.0,30.07,SW,231,0.0,1.0,83,0.00,,,0.00,weatherlink.com 1.10,2013-08-19 05:19:00,
2013-08-19 01:34:00,62.4,56.0,30.07,SW,224,0.0,4.0,80,0.00,,,0.00,weatherlink.com 1.10,2013-08-19 05:34:00,
2013-08-19 01:49:00,62.1,56.0,30.07,WSW,240,0.0,1.0,81,0.00,,,0.00,weatherlink.com 1.10,2013-08-19 05:49:00,
2013-08-19 02:04:00,61.8,56.0,30.07,SW,219,0.0,1.0,82,0.00,,,0.00,weatherlink.com 1.10,2013-08-19 06:04:00,
2013-08-19 02:19:00,61.6,56.0,30.07,WSW,242,1.0,1.0,82,0.00,,,0.00,weatherlink.com 1.10,2013-08-19 06:19:00,
2013-08-19 02:34:00,61.7,56.0,30.07,SW,229,3.0,4.0,81,0.00,,,0.00,weatherlink.com 1.10,2013-08-19 06:34:00,
2013-08-19 02:49:00,61.1,56.0,30.07,SW,236,3.0,4.0,83,0.00,,,0.00,weatherlink.com 1.10,2013-08-19 06:49:00,
2013-08-19 03:04:00,60.3,56.0,30.07,SW,233,0.0,1.0,84,0.00,,,0.00,weatherlink.com 1.10,2013-08-19 07:04:00,
2013-08-19 03:19:00,60.5,56.0,30.07,WSW,248,2.0,2.0,84,0.00,,,0.00,weatherlink.com 1.10,2013-08-19 07:19:00,
2013-08-19 03:34:00,60.8,56.0,30.06,WSW,248,2.0,4.0,84,0.00,,,0.00,weatherlink.com 1.10,2013-08-19 07:34:00,
2013-08-19 03:49:00,60.5,56.0,30.06,WSW,248,2.0,3.0,85,0.00,,,0.00,weatherlink.com 1.10,2013-08-19 07:49:00,
2013-08-19 04:04:00,60.1,56.0,30.07,West,274,2.0,3.0,86,0.00,,,0.00,weatherlink.com 1.10,2013-08-19 08:04:00,
2013-08-19 04:19:00,59.4,55.0,30.07,WSW,239,2.0,2.0,86,0.00,,,0.00,weatherlink.com 1.10,2013-08-19 08:19:00,
2013-08-19 04:34:00,59.0,56.0,30.07,WSW,240,2.0,2.0,88,0.00,,,0.00,weatherlink.com 1.10,2013-08-19 08:34:00,
2013-08-19 04:49:00,57.7,55.0,30.07,WSW,246,2.0,2.0,91,0.00,,,0.00,weatherlink.com 1.10,2013-08-19 08:49:00,
2013-08-19 05:04:00,58.6,56.0,30.06,SW,233,2.0,2.0,90,0.00,,,0.00,weatherlink.com 1.10,2013-08-19 09:04:00,
2013-08-19 05:19:00,57.3,55.0,30.06,SW,233,3.0,3.0,92,0.00,,,0.00,weatherlink.com 1.10,2013-08-19 09:19:00,
2013-08-19 05:34:00,57.0,55.0,30.07,SW,236,3.0,3.0,93,0.00,,,0.00,weatherlink.com 1.10,2013-08-19 09:34:00,
2013-08-19 05:49:00,56.8,55.0,30.07,WSW,239,3.0,3.0,93,0.00,,,0.00,weatherlink.com 1.10,2013-08-19 09:49:00,
2013-08-19 06:04:00,56.6,55.0,30.07,WSW,243,3.0,3.0,94,0.00,,,0.00,weatherlink.com 1.10,2013-08-19 10:04:00,
2013-08-19 06:19:00,56.9,55.0,30.07,SW,233,4.0,4.0,92,0.00,,,0.00,weatherlink.com 1.10,2013-08-19 10:19:00,
2013-08-19 06:34:00,57.0,55.0,30.07,SW,235,4.0,4.0,92,0.00,,,0.00,weatherlink.com 1.10,2013-08-19 10:34:00,
2013-08-19 06:49:00,56.6,54.0,30.08,WSW,241,2.0,4.0,92,0.00,,,0.00,weatherlink.com 1.10,2013-08-19 10:49:00,
2013-08-19 07:04:00,56.9,54.0,30.08,West,270,3.0,5.0,91,0.00,,,0.00,weatherlink.com 1.10,2013-08-19 11:04:00,
2013-08-19 07:19:00,57.3,55.0,30.09,West,269,3.0,7.0,91,0.00,,,0.00,weatherlink.com 1.10,2013-08-19 11:19:00,
2013-08-19 07:35:00,57.9,55.0,30.09,West,262,3.0,7.0,90,0.00,,,0.00,weatherlink.com 1.10,2013-08-19 11:35:00,
2013-08-19 07:49:00,58.7,55.0,30.09,WSW,246,2.0,6.0,88,0.00,,,0.00,weatherlink.com 1.10,2013-08-19 11:49:00,
2013-08-19 08:04:00,59.8,56.0,30.09,SW,231,3.0,4.0,87,0.00,,,0.00,weatherlink.com 1.10,2013-08-19 12:04:00,
2013-08-19 08:19:00,60.9,56.0,30.09,WSW,250,3.0,4.0,85,0.00,,,0.00,weatherlink.com 1.10,2013-08-19 12:19:00,
2013-08-19 08:34:00,62.2,57.0,30.08,WSW,246,2.0,2.0,84,0.00,,,0.00,weatherlink.com 1.10,2013-08-19 12:34:00,
2013-08-19 08:49:00,63.3,58.0,30.08,WSW,255,3.0,3.0,83,0.00,,,0.00,weatherlink.com 1.10,2013-08-19 12:49:00,
2013-08-19 09:04:00,64.3,58.0,30.08,WSW,252,4.0,6.0,81,0.00,,,0.00,weatherlink.com 1.10,2013-08-19 13:04:00,
2013-08-19 09:19:00,65.3,59.0,30.08,WSW,238,4.0,5.0,79,0.00,,,0.00,weatherlink.com 1.10,2013-08-19 13:19:00,
2013-08-19 09:34:00,66.7,59.0,30.08,WSW,257,3.0,5.0,77,0.00,,,0.00,weatherlink.com 1.10,2013-08-19 13:34:00,
2013-08-19 09:49:00,68.7,61.0,30.07,SSW,203,1.0,3.0,75,0.00,,,0.00,weatherlink.com 1.10,2013-08-19 13:49:00,
2013-08-19 10:05:00,70.5,61.0,30.07,WNW,286,0.0,3.0,72,0.00,,,0.00,weatherlink.com 1.10,2013-08-19 14:05:00,
2013-08-19 10:20:00,71.2,61.0,30.07,SW,226,3.0,5.0,70,0.00,,,0.00,weatherlink.com 1.10,2013-08-19 14:20:00,
2013-08-19 10:35:00,72.6,60.0,30.07,WNW,292,3.0,5.0,65,0.00,,,0.00,weatherlink.com 1.10,2013-08-19 14:35:00,
2013-08-19 10:50:00,73.7,59.0,30.06,West,263,6.0,8.0,61,0.00,,,0.00,weatherlink.com 1.10,2013-08-19 14:50:00,
2013-08-19 11:05:00,74.1,60.0,30.07,SW,228,2.0,7.0,62,0.00,,,0.00,weatherlink.com 1.10,2013-08-19 15:05:00,
2013-08-19 11:20:00,75.1,60.0,30.07,SW,224,6.0,9.0,60,0.00,,,0.00,weatherlink.com 1.10,2013-08-19 15:20:00,
2013-08-19 11:35:00,75.5,60.0,30.07,WNW,283,3.0,8.0,59,0.00,,,0.00,weatherlink.com 1.10,2013-08-19 15:35:00,
2013-08-19 11:50:00,76.6,59.0,30.06,SW,226,5.0,9.0,55,0.00,,,0.00,weatherlink.com 1.10,2013-08-19 15:50:00,
2013-08-19 12:05:00,77.1,59.0,30.06,WSW,257,5.0,8.0,53,0.00,,,0.00,weatherlink.com 1.10,2013-08-19 16:05:00,
2013-08-19 12:20:00,77.3,58.0,30.06,WNW,297,2.0,11.0,51,0.00,,,0.00,weatherlink.com 1.10,2013-08-19 16:20:00,
2013-08-19 12:35:00,77.1,57.0,30.06,WNW,291,2.0,10.0,50,0.00,,,0.00,weatherlink.com 1.10,2013-08-19 16:35:00,
2013-08-19 12:50:00,77.2,57.0,30.06,WSW,248,1.0,9.0,50,0.00,,,0.00,weatherlink.com 1.10,2013-08-19 16:50:00,
2013-08-19 13:05:00,78.1,57.0,30.05,NW,315,6.0,9.0,49,0.00,,,0.00,weatherlink.com 1.10,2013-08-19 17:05:00,
2013-08-19 13:20:00,79.0,57.0,30.05,SW,215,3.0,8.0,47,0.00,,,0.00,weatherlink.com 1.10,2013-08-19 17:20:00,
2013-08-19 13:35:00,78.8,58.0,30.04,WNW,292,5.0,11.0,49,0.00,,,0.00,weatherlink.com 1.10,2013-08-19 17:35:00,
2013-08-19 13:50:00,79.2,58.0,30.04,WNW,287,6.0,9.0,48,0.00,,,0.00,weatherlink.com 1.10,2013-08-19 17:50:00,
2013-08-19 14:05:00,79.3,58.0,30.03,West,281,2.0,10.0,48,0.00,,,0.00,weatherlink.com 1.10,2013-08-19 18:05:00,
2013-08-19 14:20:00,79.9,58.0,30.02,WNW,302,4.0,9.0,48,0.00,,,0.00,weatherlink.com 1.10,2013-08-19 18:20:00,
2013-08-19 14:35:00,80.5,58.0,30.02,WNW,283,3.0,7.0,46,0.00,,,0.00,weatherlink.com 1.10,2013-08-19 18:35:00,
2013-08-19 14:50:00,80.4,59.0,30.02,NW,311,2.0,9.0,49,0.00,,,0.00,weatherlink.com 1.10,2013-08-19 18:50:00,
2013-08-19 15:05:00,81.4,58.0,30.01,SW,233,5.0,11.0,45,0.00,,,0.00,weatherlink.com 1.10,2013-08-19 19:05:00,
2013-08-19 15:20:00,81.5,60.0,30.01,West,263,4.0,10.0,48,0.00,,,0.00,weatherlink.com 1.10,2013-08-19 19:20:00,
2013-08-19 15:36:00,81.5,59.0,30.00,SW,229,2.0,10.0,47,0.00,,,0.00,weatherlink.com 1.10,2013-08-19 19:36:00,
2013-08-19 16:06:00,82.0,59.0,29.99,WSW,256,3.0,9.0,46,0.00,,,0.00,weatherlink.com 1.10,2013-08-19 20:06:00,
2013-08-19 16:21:00,82.5,59.0,29.99,SSW,211,3.0,9.0,45,0.00,,,0.00,weatherlink.com 1.10,2013-08-19 20:21:00,
2013-08-19 16:36:00,82.3,59.0,29.98,West,267,2.0,10.0,46,0.00,,,0.00,weatherlink.com 1.10,2013-08-19 20:36:00,
2013-08-19 16:51:00,82.6,59.0,29.98,West,264,1.0,19.0,44,0.00,,,0.00,weatherlink.com 1.10,2013-08-19 20:51:00,
2013-08-19 17:06:00,82.5,59.0,29.98,WSW,238,4.0,11.0,45,0.00,,,0.00,weatherlink.com 1.10,2013-08-19 21:06:00,
2013-08-19 17:21:00,83.0,58.0,29.98,WSW,247,3.0,8.0,43,0.00,,,0.00,weatherlink.com 1.10,2013-08-19 21:21:00,
2013-08-19 17:36:00,83.0,60.0,29.98,West,267,5.0,10.0,45,0.00,,,0.00,weatherlink.com 1.10,2013-08-19 21:36:00,
2013-08-19 17:51:00,82.4,59.0,29.98,SW,229,2.0,9.0,45,0.00,,,0.00,weatherlink.com 1.10,2013-08-19 21:51:00,
2013-08-19 18:06:00,82.5,59.0,29.98,SSW,212,3.0,8.0,45,0.00,,,0.00,weatherlink.com 1.10,2013-08-19 22:06:00,
2013-08-19 18:21:00,82.3,60.0,29.97,West,259,1.0,7.0,47,0.00,,,0.00,weatherlink.com 1.10,2013-08-19 22:21:00,
2013-08-19 18:36:00,82.0,59.0,29.98,WSW,238,2.0,6.0,45,0.00,,,0.00,weatherlink.com 1.10,2013-08-19 22:36:00,
2013-08-19 18:51:00,81.9,59.0,29.98,WSW,245,2.0,9.0,46,0.00,,,0.00,weatherlink.com 1.10,2013-08-19 22:51:00,
2013-08-19 19:06:00,81.4,59.0,29.97,SW,233,2.0,7.0,46,0.00,,,0.00,weatherlink.com 1.10,2013-08-19 23:06:00,
2013-08-19 19:21:00,80.8,59.0,29.97,WSW,253,1.0,6.0,48,0.00,,,0.00,weatherlink.com 1.10,2013-08-19 23:21:00,
2013-08-19 19:36:00,80.2,59.0,29.97,SW,232,2.0,4.0,49,0.00,,,0.00,weatherlink.com 1.10,2013-08-19 23:36:00,
2013-08-19 19:51:00,79.4,60.0,29.97,SW,231,0.0,2.0,51,0.00,,,0.00,weatherlink.com 1.10,2013-08-19 23:51:00,
2013-08-19 20:06:00,78.0,60.0,29.97,WSW,242,1.0,2.0,55,0.00,,,0.00,weatherlink.com 1.10,2013-08-20 00:06:00,
2013-08-19 20:21:00,76.5,60.0,29.97,SW,235,0.0,1.0,57,0.00,,,0.00,weatherlink.com 1.10,2013-08-20 00:21:00,
2013-08-19 20:36:00,75.0,60.0,29.98,SW,235,0.0,0.0,60,0.00,,,0.00,weatherlink.com 1.10,2013-08-20 00:36:00,
2013-08-19 20:51:00,73.0,62.0,29.98,WSW,244,0.0,1.0,68,0.00,,,0.00,weatherlink.com 1.10,2013-08-20 00:51:00,
2013-08-19 21:06:00,71.7,61.0,29.99,WSW,240,0.0,1.0,70,0.00,,,0.00,weatherlink.com 1.10,2013-08-20 01:06:00,
2013-08-19 21:21:00,71.2,61.0,29.99,WSW,243,0.0,1.0,71,0.00,,,0.00,weatherlink.com 1.10,2013-08-20 01:21:00,
2013-08-19 21:36:00,70.5,61.0,29.99,SW,235,1.0,1.0,72,0.00,,,0.00,weatherlink.com 1.10,2013-08-20 01:36:00,
2013-08-19 21:51:00,69.9,61.0,30.00,WSW,242,1.0,1.0,73,0.00,,,0.00,weatherlink.com 1.10,2013-08-20 01:51:00,
2013-08-19 22:06:00,69.8,61.0,30.00,SW,235,2.0,3.0,73,0.00,,,0.00,weatherlink.com 1.10,2013-08-20 02:06:00,
2013-08-19 22:21:00,69.4,60.0,30.00,SW,233,2.0,3.0,73,0.00,,,0.00,weatherlink.com 1.10,2013-08-20 02:21:00,
2013-08-19 22:36:00,69.3,60.0,30.00,SW,235,1.0,2.0,73,0.00,,,0.00,weatherlink.com 1.10,2013-08-20 02:36:00,
2013-08-19 22:51:00,68.9,60.0,30.00,WSW,246,1.0,2.0,74,0.00,,,0.00,weatherlink.com 1.10,2013-08-20 02:51:00,
2013-08-19 23:06:00,68.4,60.0,30.00,SW,236,0.0,1.0,75,0.00,,,0.00,weatherlink.com 1.10,2013-08-20 03:06:00,
2013-08-19 23:21:00,67.7,60.0,30.00,WSW,257,0.0,1.0,77,0.00,,,0.00,weatherlink.com 1.10,2013-08-20 03:21:00,
2013-08-19 23:36:00,67.0,60.0,30.00,WSW,240,0.0,1.0,77,0.00,,,0.00,weatherlink.com 1.10,2013-08-20 03:36:00,
2013-08-19 23:51:00,66.3,60.0,30.00,SW,236,2.0,2.0,79,0.00,,,0.00,weatherlink.com 1.10,2013-08-20 03:51:00,